sensor_id;sensor_type;location;lat;lon;timestamp;temperature;humidity
19561;DHT22;9927;47.792;10.616;2023-07-31T00:02:09;16.20;99.90
19561;DHT22;9927;47.792;10.616;2023-07-31T00:04:37;16.30;99.90
19561;DHT22;9927;47.792;10.616;2023-07-31T00:07:04;16.30;99.90
19561;DHT22;9927;47.792;10.616;2023-07-31T00:09:33;16.40;99.90
19561;DHT22;9927;47.792;10.616;2023-07-31T00:12:00;16.50;99.90
19561;DHT22;9927;47.792;10.616;2023-07-31T00:14:28;16.50;99.90
19561;DHT22;9927;47.792;10.616;2023-07-31T00:16:55;16.60;99.90
19561;DHT22;9927;47.792;10.616;2023-07-31T00:19:22;16.50;99.90
19561;DHT22;9927;47.792;10.616;2023-07-31T00:21:50;16.50;99.90
19561;DHT22;9927;47.792;10.616;2023-07-31T00:24:17;16.30;99.90
19561;DHT22;9927;47.792;10.616;2023-07-31T00:26:44;16.30;99.90
19561;DHT22;9927;47.792;10.616;2023-07-31T00:29:11;16.40;99.90
19561;DHT22;9927;47.792;10.616;2023-07-31T00:31:39;16.40;99.90
19561;DHT22;9927;47.792;10.616;2023-07-31T00:34:06;16.50;99.90
19561;DHT22;9927;47.792;10.616;2023-07-31T00:36:33;16.40;99.90
19561;DHT22;9927;47.792;10.616;2023-07-31T00:39:00;16.40;99.90
19561;DHT22;9927;47.792;10.616;2023-07-31T00:41:28;16.40;99.90
19561;DHT22;9927;47.792;10.616;2023-07-31T00:43:55;16.10;99.90
19561;DHT22;9927;47.792;10.616;2023-07-31T00:46:22;16.20;99.90
19561;DHT22;9927;47.792;10.616;2023-07-31T00:48:49;16.10;99.90
19561;DHT22;9927;47.792;10.616;2023-07-31T00:51:17;16.10;99.90
19561;DHT22;9927;47.792;10.616;2023-07-31T00:53:45;16.10;99.90
19561;DHT22;9927;47.792;10.616;2023-07-31T00:56:14;16.10;99.90
19561;DHT22;9927;47.792;10.616;2023-07-31T00:58:41;16.10;99.90
19561;DHT22;9927;47.792;10.616;2023-07-31T01:01:08;16.10;99.90
19561;DHT22;9927;47.792;10.616;2023-07-31T01:03:36;16.00;99.90
19561;DHT22;9927;47.792;10.616;2023-07-31T01:06:55;16.00;99.90
19561;DHT22;9927;47.792;10.616;2023-07-31T01:12:00;15.90;99.90
19561;DHT22;9927;47.792;10.616;2023-07-31T01:14:28;15.90;99.90
19561;DHT22;9927;47.792;10.616;2023-07-31T01:16:56;15.90;99.90
19561;DHT22;9927;47.792;10.616;2023-07-31T01:19:25;15.80;99.90
19561;DHT22;9927;47.792;10.616;2023-07-31T01:22:23;15.80;99.90
19561;DHT22;9927;47.792;10.616;2023-07-31T01:28:06;15.50;99.90
19561;DHT22;9927;47.792;10.616;2023-07-31T01:30:38;15.50;99.90
19561;DHT22;9927;47.792;10.616;2023-07-31T01:33:08;15.60;99.90
19561;DHT22;9927;47.792;10.616;2023-07-31T01:35:37;15.60;99.90
19561;DHT22;9927;47.792;10.616;2023-07-31T01:38:05;15.60;99.90
19561;DHT22;9927;47.792;10.616;2023-07-31T01:40:32;15.70;99.90
19561;DHT22;9927;47.792;10.616;2023-07-31T01:42:59;15.70;99.90
19561;DHT22;9927;47.792;10.616;2023-07-31T01:45:26;15.70;99.90
19561;DHT22;9927;47.792;10.616;2023-07-31T01:47:54;15.70;99.90
19561;DHT22;9927;47.792;10.616;2023-07-31T01:50:21;15.70;99.90
19561;DHT22;9927;47.792;10.616;2023-07-31T01:52:48;15.70;99.90
19561;DHT22;9927;47.792;10.616;2023-07-31T01:55:15;15.80;99.90
19561;DHT22;9927;47.792;10.616;2023-07-31T01:57:43;15.70;99.90
19561;DHT22;9927;47.792;10.616;2023-07-31T02:00:10;15.70;99.90
19561;DHT22;9927;47.792;10.616;2023-07-31T02:02:37;15.60;99.90
19561;DHT22;9927;47.792;10.616;2023-07-31T02:05:05;15.60;99.90
19561;DHT22;9927;47.792;10.616;2023-07-31T02:07:32;15.70;99.90
19561;DHT22;9927;47.792;10.616;2023-07-31T02:10:00;15.70;99.90
19561;DHT22;9927;47.792;10.616;2023-07-31T02:12:27;15.70;99.90
19561;DHT22;9927;47.792;10.616;2023-07-31T02:14:57;15.60;99.90
19561;DHT22;9927;47.792;10.616;2023-07-31T02:17:24;15.60;99.90
19561;DHT22;9927;47.792;10.616;2023-07-31T02:19:52;15.60;99.90
19561;DHT22;9927;47.792;10.616;2023-07-31T02:22:19;15.50;99.90
19561;DHT22;9927;47.792;10.616;2023-07-31T02:24:47;15.40;99.90
19561;DHT22;9927;47.792;10.616;2023-07-31T02:27:14;15.40;99.90
19561;DHT22;9927;47.792;10.616;2023-07-31T02:29:41;15.40;99.90
19561;DHT22;9927;47.792;10.616;2023-07-31T02:32:08;15.30;99.90
19561;DHT22;9927;47.792;10.616;2023-07-31T02:34:36;15.30;99.90
19561;DHT22;9927;47.792;10.616;2023-07-31T02:37:03;15.20;99.90
19561;DHT22;9927;47.792;10.616;2023-07-31T02:39:30;15.10;99.90
19561;DHT22;9927;47.792;10.616;2023-07-31T02:41:58;15.10;99.90
19561;DHT22;9927;47.792;10.616;2023-07-31T02:44:25;15.00;99.90
19561;DHT22;9927;47.792;10.616;2023-07-31T02:46:52;15.00;99.90
19561;DHT22;9927;47.792;10.616;2023-07-31T02:49:19;15.00;99.90
19561;DHT22;9927;47.792;10.616;2023-07-31T02:51:47;14.90;99.90
19561;DHT22;9927;47.792;10.616;2023-07-31T02:54:14;14.90;99.90
19561;DHT22;9927;47.792;10.616;2023-07-31T02:56:41;14.80;99.90
19561;DHT22;9927;47.792;10.616;2023-07-31T02:59:09;14.80;99.90
19561;DHT22;9927;47.792;10.616;2023-07-31T03:01:36;14.60;99.90
19561;DHT22;9927;47.792;10.616;2023-07-31T03:04:03;14.40;99.90
19561;DHT22;9927;47.792;10.616;2023-07-31T03:06:31;14.40;99.90
19561;DHT22;9927;47.792;10.616;2023-07-31T03:08:58;14.40;99.90
19561;DHT22;9927;47.792;10.616;2023-07-31T03:11:25;14.30;99.90
19561;DHT22;9927;47.792;10.616;2023-07-31T03:13:53;14.20;99.90
19561;DHT22;9927;47.792;10.616;2023-07-31T03:16:21;14.30;99.90
19561;DHT22;9927;47.792;10.616;2023-07-31T03:18:48;14.30;99.90
19561;DHT22;9927;47.792;10.616;2023-07-31T03:21:15;14.20;99.90
19561;DHT22;9927;47.792;10.616;2023-07-31T03:23:42;14.20;99.90
19561;DHT22;9927;47.792;10.616;2023-07-31T03:26:10;14.20;99.90
19561;DHT22;9927;47.792;10.616;2023-07-31T03:28:38;14.00;99.90
19561;DHT22;9927;47.792;10.616;2023-07-31T03:31:05;13.80;99.90
19561;DHT22;9927;47.792;10.616;2023-07-31T03:33:32;13.80;99.90
19561;DHT22;9927;47.792;10.616;2023-07-31T03:35:59;13.80;99.90
19561;DHT22;9927;47.792;10.616;2023-07-31T03:38:27;13.80;99.90
19561;DHT22;9927;47.792;10.616;2023-07-31T03:40:54;13.80;99.90
19561;DHT22;9927;47.792;10.616;2023-07-31T03:43:21;13.80;99.90
19561;DHT22;9927;47.792;10.616;2023-07-31T03:45:48;13.70;99.90
19561;DHT22;9927;47.792;10.616;2023-07-31T03:48:16;13.70;99.90
19561;DHT22;9927;47.792;10.616;2023-07-31T03:50:43;13.70;99.90
19561;DHT22;9927;47.792;10.616;2023-07-31T03:53:11;13.70;99.90
19561;DHT22;9927;47.792;10.616;2023-07-31T03:55:38;13.70;99.90
19561;DHT22;9927;47.792;10.616;2023-07-31T03:58:05;13.80;99.90
19561;DHT22;9927;47.792;10.616;2023-07-31T04:00:32;13.70;99.90
19561;DHT22;9927;47.792;10.616;2023-07-31T04:03:00;13.70;99.90
19561;DHT22;9927;47.792;10.616;2023-07-31T04:05:29;13.70;99.90
19561;DHT22;9927;47.792;10.616;2023-07-31T04:07:57;13.70;99.90
19561;DHT22;9927;47.792;10.616;2023-07-31T04:10:24;13.70;99.90
19561;DHT22;9927;47.792;10.616;2023-07-31T04:12:51;13.70;99.90
19561;DHT22;9927;47.792;10.616;2023-07-31T04:15:18;13.70;99.90
19561;DHT22;9927;47.792;10.616;2023-07-31T04:17:46;13.70;99.90
19561;DHT22;9927;47.792;10.616;2023-07-31T04:20:13;13.80;99.90
19561;DHT22;9927;47.792;10.616;2023-07-31T04:22:40;13.80;99.90
19561;DHT22;9927;47.792;10.616;2023-07-31T04:25:07;13.90;99.90
19561;DHT22;9927;47.792;10.616;2023-07-31T04:27:35;13.90;99.90
19561;DHT22;9927;47.792;10.616;2023-07-31T04:30:02;14.00;99.90
19561;DHT22;9927;47.792;10.616;2023-07-31T04:32:30;14.10;99.90
19561;DHT22;9927;47.792;10.616;2023-07-31T04:34:57;14.10;99.90
19561;DHT22;9927;47.792;10.616;2023-07-31T04:37:24;14.20;99.90
19561;DHT22;9927;47.792;10.616;2023-07-31T04:39:51;14.30;99.90
19561;DHT22;9927;47.792;10.616;2023-07-31T04:42:19;14.40;99.90
19561;DHT22;9927;47.792;10.616;2023-07-31T04:44:46;14.50;99.90
19561;DHT22;9927;47.792;10.616;2023-07-31T04:47:13;14.80;99.90
19561;DHT22;9927;47.792;10.616;2023-07-31T04:49:40;15.00;99.90
19561;DHT22;9927;47.792;10.616;2023-07-31T04:52:08;15.20;99.90
19561;DHT22;9927;47.792;10.616;2023-07-31T04:54:35;15.40;99.90
19561;DHT22;9927;47.792;10.616;2023-07-31T04:57:02;15.70;99.90
19561;DHT22;9927;47.792;10.616;2023-07-31T04:59:29;15.90;99.90
19561;DHT22;9927;47.792;10.616;2023-07-31T05:01:58;16.00;99.90
19561;DHT22;9927;47.792;10.616;2023-07-31T05:04:26;16.00;99.90
19561;DHT22;9927;47.792;10.616;2023-07-31T05:06:53;16.00;99.90
19561;DHT22;9927;47.792;10.616;2023-07-31T05:09:20;16.10;99.90
19561;DHT22;9927;47.792;10.616;2023-07-31T05:11:47;16.20;99.90
19561;DHT22;9927;47.792;10.616;2023-07-31T05:14:14;16.30;99.90
19561;DHT22;9927;47.792;10.616;2023-07-31T05:16:42;16.40;99.90
19561;DHT22;9927;47.792;10.616;2023-07-31T05:19:10;16.40;99.90
19561;DHT22;9927;47.792;10.616;2023-07-31T05:21:37;16.40;99.90
19561;DHT22;9927;47.792;10.616;2023-07-31T05:24:05;16.40;99.90
19561;DHT22;9927;47.792;10.616;2023-07-31T05:26:32;16.50;99.90
19561;DHT22;9927;47.792;10.616;2023-07-31T05:28:59;16.60;99.90
19561;DHT22;9927;47.792;10.616;2023-07-31T05:31:27;16.70;99.90
19561;DHT22;9927;47.792;10.616;2023-07-31T05:33:54;16.80;99.90
19561;DHT22;9927;47.792;10.616;2023-07-31T05:36:21;16.90;99.90
19561;DHT22;9927;47.792;10.616;2023-07-31T05:38:48;17.10;99.90
19561;DHT22;9927;47.792;10.616;2023-07-31T05:41:15;17.20;99.90
19561;DHT22;9927;47.792;10.616;2023-07-31T05:43:43;17.40;99.90
19561;DHT22;9927;47.792;10.616;2023-07-31T05:46:10;17.50;99.90
19561;DHT22;9927;47.792;10.616;2023-07-31T05:48:39;17.60;99.90
19561;DHT22;9927;47.792;10.616;2023-07-31T05:51:06;17.80;99.90
19561;DHT22;9927;47.792;10.616;2023-07-31T05:53:34;17.90;99.90
19561;DHT22;9927;47.792;10.616;2023-07-31T05:56:03;17.90;99.90
19561;DHT22;9927;47.792;10.616;2023-07-31T05:58:30;18.00;99.90
19561;DHT22;9927;47.792;10.616;2023-07-31T06:00:57;18.00;99.90
19561;DHT22;9927;47.792;10.616;2023-07-31T06:03:24;18.20;99.90
19561;DHT22;9927;47.792;10.616;2023-07-31T06:05:52;18.40;99.90
19561;DHT22;9927;47.792;10.616;2023-07-31T06:08:19;18.50;99.90
19561;DHT22;9927;47.792;10.616;2023-07-31T06:10:46;18.60;99.90
19561;DHT22;9927;47.792;10.616;2023-07-31T06:13:13;18.60;99.90
19561;DHT22;9927;47.792;10.616;2023-07-31T06:15:41;18.60;99.90
19561;DHT22;9927;47.792;10.616;2023-07-31T06:18:08;18.70;99.90
19561;DHT22;9927;47.792;10.616;2023-07-31T06:20:35;18.70;99.90
19561;DHT22;9927;47.792;10.616;2023-07-31T06:23:02;18.80;99.90
19561;DHT22;9927;47.792;10.616;2023-07-31T06:25:30;18.90;99.90
19561;DHT22;9927;47.792;10.616;2023-07-31T06:27:58;19.10;99.90
19561;DHT22;9927;47.792;10.616;2023-07-31T06:30:25;19.30;99.90
19561;DHT22;9927;47.792;10.616;2023-07-31T06:32:52;19.60;99.90
19561;DHT22;9927;47.792;10.616;2023-07-31T06:35:19;20.00;99.90
19561;DHT22;9927;47.792;10.616;2023-07-31T06:37:47;20.10;99.90
19561;DHT22;9927;47.792;10.616;2023-07-31T06:40:14;20.50;99.90
19561;DHT22;9927;47.792;10.616;2023-07-31T06:42:41;21.00;99.90
19561;DHT22;9927;47.792;10.616;2023-07-31T06:47:36;21.40;99.90
19561;DHT22;9927;47.792;10.616;2023-07-31T06:50:04;21.40;99.90
19561;DHT22;9927;47.792;10.616;2023-07-31T06:52:32;21.10;99.90
19561;DHT22;9927;47.792;10.616;2023-07-31T06:55:02;20.80;99.90
19561;DHT22;9927;47.792;10.616;2023-07-31T06:57:30;20.60;99.90
19561;DHT22;9927;47.792;10.616;2023-07-31T06:59:58;20.70;99.90
19561;DHT22;9927;47.792;10.616;2023-07-31T07:02:25;21.30;99.90
19561;DHT22;9927;47.792;10.616;2023-07-31T07:04:53;21.90;99.90
19561;DHT22;9927;47.792;10.616;2023-07-31T07:07:20;22.60;99.90
19561;DHT22;9927;47.792;10.616;2023-07-31T07:09:47;22.80;99.90
19561;DHT22;9927;47.792;10.616;2023-07-31T07:12:14;23.30;99.90
19561;DHT22;9927;47.792;10.616;2023-07-31T07:14:41;23.70;99.90
19561;DHT22;9927;47.792;10.616;2023-07-31T07:17:09;24.30;99.90
19561;DHT22;9927;47.792;10.616;2023-07-31T07:19:40;24.70;99.90
19561;DHT22;9927;47.792;10.616;2023-07-31T07:22:08;24.80;99.50
19561;DHT22;9927;47.792;10.616;2023-07-31T07:24:35;25.30;99.90
19561;DHT22;9927;47.792;10.616;2023-07-31T07:27:03;25.90;98.60
19561;DHT22;9927;47.792;10.616;2023-07-31T07:29:30;26.20;96.50
19561;DHT22;9927;47.792;10.616;2023-07-31T07:31:57;26.30;94.30
19561;DHT22;9927;47.792;10.616;2023-07-31T07:34:28;26.60;95.30
19561;DHT22;9927;47.792;10.616;2023-07-31T07:36:55;27.20;91.90
19561;DHT22;9927;47.792;10.616;2023-07-31T07:39:23;27.90;92.90
19561;DHT22;9927;47.792;10.616;2023-07-31T07:41:50;28.70;89.60
19561;DHT22;9927;47.792;10.616;2023-07-31T07:44:17;28.70;90.00
19561;DHT22;9927;47.792;10.616;2023-07-31T07:46:45;28.60;88.00
19561;DHT22;9927;47.792;10.616;2023-07-31T07:49:12;28.60;85.10
19561;DHT22;9927;47.792;10.616;2023-07-31T07:51:39;28.70;83.30
19561;DHT22;9927;47.792;10.616;2023-07-31T07:54:07;28.30;81.50
19561;DHT22;9927;47.792;10.616;2023-07-31T07:56:34;28.30;82.30
19561;DHT22;9927;47.792;10.616;2023-07-31T07:59:04;27.90;81.10
19561;DHT22;9927;47.792;10.616;2023-07-31T08:01:31;27.30;81.80
19561;DHT22;9927;47.792;10.616;2023-07-31T08:03:58;26.30;83.60
19561;DHT22;9927;47.792;10.616;2023-07-31T08:06:25;25.30;87.70
19561;DHT22;9927;47.792;10.616;2023-07-31T08:08:53;24.60;90.00
19561;DHT22;9927;47.792;10.616;2023-07-31T08:11:20;24.30;90.80
19561;DHT22;9927;47.792;10.616;2023-07-31T08:13:49;23.90;92.00
19561;DHT22;9927;47.792;10.616;2023-07-31T08:16:16;23.80;92.20
19561;DHT22;9927;47.792;10.616;2023-07-31T08:18:44;23.70;93.30
19561;DHT22;9927;47.792;10.616;2023-07-31T08:21:11;23.50;93.40
19561;DHT22;9927;47.792;10.616;2023-07-31T08:23:38;23.60;94.10
19561;DHT22;9927;47.792;10.616;2023-07-31T08:26:06;24.00;94.50
19561;DHT22;9927;47.792;10.616;2023-07-31T08:28:33;24.10;94.60
19561;DHT22;9927;47.792;10.616;2023-07-31T08:31:02;23.80;94.30
19561;DHT22;9927;47.792;10.616;2023-07-31T08:33:29;23.50;95.40
19561;DHT22;9927;47.792;10.616;2023-07-31T08:35:56;23.40;95.30
19561;DHT22;9927;47.792;10.616;2023-07-31T08:38:24;24.00;96.40
19561;DHT22;9927;47.792;10.616;2023-07-31T08:40:52;24.40;96.10
19561;DHT22;9927;47.792;10.616;2023-07-31T08:43:21;24.50;95.60
19561;DHT22;9927;47.792;10.616;2023-07-31T08:45:50;25.10;93.90
19561;DHT22;9927;47.792;10.616;2023-07-31T08:48:20;25.40;93.90
19561;DHT22;9927;47.792;10.616;2023-07-31T08:50:48;26.30;93.60
19561;DHT22;9927;47.792;10.616;2023-07-31T08:53:15;26.80;91.80
19561;DHT22;9927;47.792;10.616;2023-07-31T08:55:44;27.10;90.20
19561;DHT22;9927;47.792;10.616;2023-07-31T08:58:13;26.80;89.30
19561;DHT22;9927;47.792;10.616;2023-07-31T09:00:41;26.50;86.30
19561;DHT22;9927;47.792;10.616;2023-07-31T09:03:15;25.90;90.00
19561;DHT22;9927;47.792;10.616;2023-07-31T09:05:44;25.70;90.40
19561;DHT22;9927;47.792;10.616;2023-07-31T09:08:13;24.80;92.10
19561;DHT22;9927;47.792;10.616;2023-07-31T09:10:42;24.80;92.30
19561;DHT22;9927;47.792;10.616;2023-07-31T09:13:10;24.60;91.70
19561;DHT22;9927;47.792;10.616;2023-07-31T09:15:40;24.30;91.20
19561;DHT22;9927;47.792;10.616;2023-07-31T09:18:09;24.50;92.70
19561;DHT22;9927;47.792;10.616;2023-07-31T09:20:37;25.10;92.80
19561;DHT22;9927;47.792;10.616;2023-07-31T09:23:14;25.70;92.30
19561;DHT22;9927;47.792;10.616;2023-07-31T09:25:46;25.60;92.80
19561;DHT22;9927;47.792;10.616;2023-07-31T09:28:13;25.60;91.60
19561;DHT22;9927;47.792;10.616;2023-07-31T09:30:48;25.80;92.10
19561;DHT22;9927;47.792;10.616;2023-07-31T09:33:16;25.90;91.50
19561;DHT22;9927;47.792;10.616;2023-07-31T09:35:44;25.90;91.30
19561;DHT22;9927;47.792;10.616;2023-07-31T09:38:14;25.80;92.20
19561;DHT22;9927;47.792;10.616;2023-07-31T09:40:47;26.10;91.40
19561;DHT22;9927;47.792;10.616;2023-07-31T09:43:19;26.00;91.80
19561;DHT22;9927;47.792;10.616;2023-07-31T09:45:47;26.20;91.60
19561;DHT22;9927;47.792;10.616;2023-07-31T09:48:16;26.50;92.20
19561;DHT22;9927;47.792;10.616;2023-07-31T09:50:48;26.20;90.60
19561;DHT22;9927;47.792;10.616;2023-07-31T09:53:16;25.90;90.50
19561;DHT22;9927;47.792;10.616;2023-07-31T09:55:44;25.70;91.80
19561;DHT22;9927;47.792;10.616;2023-07-31T09:58:12;25.50;91.80
19561;DHT22;9927;47.792;10.616;2023-07-31T10:00:40;25.60;92.40
19561;DHT22;9927;47.792;10.616;2023-07-31T10:03:09;26.10;91.90
19561;DHT22;9927;47.792;10.616;2023-07-31T10:05:49;26.50;91.90
19561;DHT22;9927;47.792;10.616;2023-07-31T10:08:18;26.30;90.60
19561;DHT22;9927;47.792;10.616;2023-07-31T10:10:48;25.80;91.20
19561;DHT22;9927;47.792;10.616;2023-07-31T10:13:16;26.20;91.90
19561;DHT22;9927;47.792;10.616;2023-07-31T10:15:44;26.40;91.90
19561;DHT22;9927;47.792;10.616;2023-07-31T10:18:12;26.80;90.70
19561;DHT22;9927;47.792;10.616;2023-07-31T10:20:41;26.90;90.00
19561;DHT22;9927;47.792;10.616;2023-07-31T10:23:08;26.60;90.40
19561;DHT22;9927;47.792;10.616;2023-07-31T10:25:37;26.70;90.10
19561;DHT22;9927;47.792;10.616;2023-07-31T10:28:05;26.60;91.10
19561;DHT22;9927;47.792;10.616;2023-07-31T10:30:33;26.20;91.10
19561;DHT22;9927;47.792;10.616;2023-07-31T10:33:02;26.30;91.30
19561;DHT22;9927;47.792;10.616;2023-07-31T10:35:30;26.00;89.80
19561;DHT22;9927;47.792;10.616;2023-07-31T10:38:10;25.80;90.90
19561;DHT22;9927;47.792;10.616;2023-07-31T10:40:39;25.60;90.30
19561;DHT22;9927;47.792;10.616;2023-07-31T10:43:06;25.60;91.00
19561;DHT22;9927;47.792;10.616;2023-07-31T10:48:06;25.60;91.60
19561;DHT22;9927;47.792;10.616;2023-07-31T10:50:38;25.50;91.60
19561;DHT22;9927;47.792;10.616;2023-07-31T10:53:06;25.40;90.40
19561;DHT22;9927;47.792;10.616;2023-07-31T10:55:41;25.70;91.40
19561;DHT22;9927;47.792;10.616;2023-07-31T10:58:11;25.40;90.90
19561;DHT22;9927;47.792;10.616;2023-07-31T11:00:43;25.60;91.20
19561;DHT22;9927;47.792;10.616;2023-07-31T11:03:13;25.70;91.00
19561;DHT22;9927;47.792;10.616;2023-07-31T11:05:51;25.80;90.60
19561;DHT22;9927;47.792;10.616;2023-07-31T11:11:03;26.00;89.20
19561;DHT22;9927;47.792;10.616;2023-07-31T11:16:00;26.00;88.50
19561;DHT22;9927;47.792;10.616;2023-07-31T11:18:27;26.00;87.40
19561;DHT22;9927;47.792;10.616;2023-07-31T11:20:54;25.90;86.50
19561;DHT22;9927;47.792;10.616;2023-07-31T11:23:22;25.80;86.00
19561;DHT22;9927;47.792;10.616;2023-07-31T11:25:50;25.90;85.70
19561;DHT22;9927;47.792;10.616;2023-07-31T11:28:19;25.80;89.10
19561;DHT22;9927;47.792;10.616;2023-07-31T11:30:46;25.60;87.80
19561;DHT22;9927;47.792;10.616;2023-07-31T11:33:14;25.60;87.10
19561;DHT22;9927;47.792;10.616;2023-07-31T11:35:46;25.60;87.00
19561;DHT22;9927;47.792;10.616;2023-07-31T11:38:25;25.60;86.30
19561;DHT22;9927;47.792;10.616;2023-07-31T11:40:54;25.40;85.80
19561;DHT22;9927;47.792;10.616;2023-07-31T11:43:22;25.30;86.70
19561;DHT22;9927;47.792;10.616;2023-07-31T11:45:52;25.20;84.90
19561;DHT22;9927;47.792;10.616;2023-07-31T11:48:25;25.40;85.60
19561;DHT22;9927;47.792;10.616;2023-07-31T11:50:57;25.60;85.70
19561;DHT22;9927;47.792;10.616;2023-07-31T11:56:06;25.60;84.20
19561;DHT22;9927;47.792;10.616;2023-07-31T11:58:35;25.60;85.20
19561;DHT22;9927;47.792;10.616;2023-07-31T12:01:04;25.60;75.40
19561;DHT22;9927;47.792;10.616;2023-07-31T12:03:32;25.60;79.30
19561;DHT22;9927;47.792;10.616;2023-07-31T12:06:00;25.80;79.80
19561;DHT22;9927;47.792;10.616;2023-07-31T12:08:28;25.90;76.80
19561;DHT22;9927;47.792;10.616;2023-07-31T12:11:04;26.10;82.10
19561;DHT22;9927;47.792;10.616;2023-07-31T12:13:33;26.30;78.00
19561;DHT22;9927;47.792;10.616;2023-07-31T12:16:01;26.30;80.10
19561;DHT22;9927;47.792;10.616;2023-07-31T12:18:35;26.50;76.10
19561;DHT22;9927;47.792;10.616;2023-07-31T12:21:05;26.80;76.30
19561;DHT22;9927;47.792;10.616;2023-07-31T12:23:34;26.80;77.20
19561;DHT22;9927;47.792;10.616;2023-07-31T12:26:13;27.10;79.20
19561;DHT22;9927;47.792;10.616;2023-07-31T12:28:43;27.40;74.80
19561;DHT22;9927;47.792;10.616;2023-07-31T12:31:21;27.20;76.90
19561;DHT22;9927;47.792;10.616;2023-07-31T12:33:51;27.40;75.30
19561;DHT22;9927;47.792;10.616;2023-07-31T12:36:23;27.20;72.00
19561;DHT22;9927;47.792;10.616;2023-07-31T12:38:52;27.40;74.20
19561;DHT22;9927;47.792;10.616;2023-07-31T12:41:19;27.60;75.30
19561;DHT22;9927;47.792;10.616;2023-07-31T12:43:46;27.50;72.00
19561;DHT22;9927;47.792;10.616;2023-07-31T12:46:14;27.30;71.70
19561;DHT22;9927;47.792;10.616;2023-07-31T12:48:41;26.80;72.50
19561;DHT22;9927;47.792;10.616;2023-07-31T12:51:09;26.80;75.50
19561;DHT22;9927;47.792;10.616;2023-07-31T12:53:36;26.90;74.50
19561;DHT22;9927;47.792;10.616;2023-07-31T12:56:03;27.20;76.80
19561;DHT22;9927;47.792;10.616;2023-07-31T12:58:31;27.30;77.00
19561;DHT22;9927;47.792;10.616;2023-07-31T13:00:58;27.20;78.10
19561;DHT22;9927;47.792;10.616;2023-07-31T13:03:25;26.90;74.90
19561;DHT22;9927;47.792;10.616;2023-07-31T13:05:53;26.40;76.60
19561;DHT22;9927;47.792;10.616;2023-07-31T13:08:21;26.40;77.30
19561;DHT22;9927;47.792;10.616;2023-07-31T13:10:48;26.50;76.30
19561;DHT22;9927;47.792;10.616;2023-07-31T13:13:15;26.60;75.80
19561;DHT22;9927;47.792;10.616;2023-07-31T13:15:43;26.70;79.90
19561;DHT22;9927;47.792;10.616;2023-07-31T13:18:11;26.50;74.90
19561;DHT22;9927;47.792;10.616;2023-07-31T13:20:38;26.50;74.80
19561;DHT22;9927;47.792;10.616;2023-07-31T13:23:05;26.40;77.80
19561;DHT22;9927;47.792;10.616;2023-07-31T13:25:32;26.10;75.90
19561;DHT22;9927;47.792;10.616;2023-07-31T13:28:00;26.10;75.00
19561;DHT22;9927;47.792;10.616;2023-07-31T13:30:29;25.70;76.90
19561;DHT22;9927;47.792;10.616;2023-07-31T13:32:57;25.70;78.80
19561;DHT22;9927;47.792;10.616;2023-07-31T13:35:24;25.40;74.70
19561;DHT22;9927;47.792;10.616;2023-07-31T13:37:51;25.40;75.00
19561;DHT22;9927;47.792;10.616;2023-07-31T13:40:18;25.20;74.90
19561;DHT22;9927;47.792;10.616;2023-07-31T13:42:46;25.10;76.00
19561;DHT22;9927;47.792;10.616;2023-07-31T13:45:14;25.60;72.90
19561;DHT22;9927;47.792;10.616;2023-07-31T13:47:42;25.60;73.50
19561;DHT22;9927;47.792;10.616;2023-07-31T13:50:09;25.70;74.90
19561;DHT22;9927;47.792;10.616;2023-07-31T13:52:37;25.60;75.10
19561;DHT22;9927;47.792;10.616;2023-07-31T13:55:04;25.20;75.80
19561;DHT22;9927;47.792;10.616;2023-07-31T13:57:31;25.10;77.10
19561;DHT22;9927;47.792;10.616;2023-07-31T13:59:59;25.20;76.80
19561;DHT22;9927;47.792;10.616;2023-07-31T14:02:26;25.10;76.20
19561;DHT22;9927;47.792;10.616;2023-07-31T14:04:53;24.90;76.50
19561;DHT22;9927;47.792;10.616;2023-07-31T14:07:20;24.70;77.30
19561;DHT22;9927;47.792;10.616;2023-07-31T14:09:48;24.80;78.70
19561;DHT22;9927;47.792;10.616;2023-07-31T14:12:15;24.90;79.20
19561;DHT22;9927;47.792;10.616;2023-07-31T14:15:02;25.10;79.30
19561;DHT22;9927;47.792;10.616;2023-07-31T14:17:30;24.80;79.70
19561;DHT22;9927;47.792;10.616;2023-07-31T14:19:57;24.90;79.30
19561;DHT22;9927;47.792;10.616;2023-07-31T14:22:29;24.80;79.80
19561;DHT22;9927;47.792;10.616;2023-07-31T14:24:57;24.90;80.40
19561;DHT22;9927;47.792;10.616;2023-07-31T14:27:24;25.50;82.10
19561;DHT22;9927;47.792;10.616;2023-07-31T14:29:51;25.60;75.60
19561;DHT22;9927;47.792;10.616;2023-07-31T14:32:18;25.30;75.60
19561;DHT22;9927;47.792;10.616;2023-07-31T14:34:46;25.30;76.10
19561;DHT22;9927;47.792;10.616;2023-07-31T14:37:13;24.70;72.90
19561;DHT22;9927;47.792;10.616;2023-07-31T14:39:40;24.70;74.40
19561;DHT22;9927;47.792;10.616;2023-07-31T14:42:07;24.70;75.20
19561;DHT22;9927;47.792;10.616;2023-07-31T14:44:35;24.60;75.50
19561;DHT22;9927;47.792;10.616;2023-07-31T14:47:02;24.50;76.00
19561;DHT22;9927;47.792;10.616;2023-07-31T14:49:29;24.60;77.40
19561;DHT22;9927;47.792;10.616;2023-07-31T14:51:56;24.60;77.10
19561;DHT22;9927;47.792;10.616;2023-07-31T14:54:24;24.80;79.10
19561;DHT22;9927;47.792;10.616;2023-07-31T14:56:51;25.00;75.80
19561;DHT22;9927;47.792;10.616;2023-07-31T14:59:18;25.00;76.70
19561;DHT22;9927;47.792;10.616;2023-07-31T15:01:45;25.00;76.60
19561;DHT22;9927;47.792;10.616;2023-07-31T15:04:13;25.00;77.40
19561;DHT22;9927;47.792;10.616;2023-07-31T15:06:40;24.80;76.20
19561;DHT22;9927;47.792;10.616;2023-07-31T15:09:08;24.70;76.80
19561;DHT22;9927;47.792;10.616;2023-07-31T15:11:35;24.60;77.80
19561;DHT22;9927;47.792;10.616;2023-07-31T15:14:03;24.50;79.10
19561;DHT22;9927;47.792;10.616;2023-07-31T15:16:30;24.60;78.90
19561;DHT22;9927;47.792;10.616;2023-07-31T15:18:58;24.60;79.20
19561;DHT22;9927;47.792;10.616;2023-07-31T15:21:25;24.80;78.90
19561;DHT22;9927;47.792;10.616;2023-07-31T15:23:53;24.60;79.80
19561;DHT22;9927;47.792;10.616;2023-07-31T15:26:20;24.50;79.10
19561;DHT22;9927;47.792;10.616;2023-07-31T15:28:50;24.50;80.80
19561;DHT22;9927;47.792;10.616;2023-07-31T15:31:22;24.50;80.20
19561;DHT22;9927;47.792;10.616;2023-07-31T15:33:49;24.50;80.50
19561;DHT22;9927;47.792;10.616;2023-07-31T15:36:16;24.70;80.70
19561;DHT22;9927;47.792;10.616;2023-07-31T15:38:44;25.10;80.50
19561;DHT22;9927;47.792;10.616;2023-07-31T15:41:13;25.20;80.20
19561;DHT22;9927;47.792;10.616;2023-07-31T15:43:40;25.30;80.30
19561;DHT22;9927;47.792;10.616;2023-07-31T15:46:07;25.30;80.60
19561;DHT22;9927;47.792;10.616;2023-07-31T15:48:34;25.50;80.00
19561;DHT22;9927;47.792;10.616;2023-07-31T15:51:02;25.50;80.80
19561;DHT22;9927;47.792;10.616;2023-07-31T15:53:30;25.70;80.60
19561;DHT22;9927;47.792;10.616;2023-07-31T15:55:58;25.90;78.80